Time,TemperatureF,DewpointF,PressureIn,WindDirection,WindDirectionDegrees,WindSpeedMPH,WindSpeedGustMPH,Humidity,HourlyPrecipIn,Conditions,Clouds,dailyrainin,SoftwareType,DateUTC
2013-06-13 00:01:00,53.2,40.5,29.68,SSE,158,3.5,3.5,62,0.00,CLR,SCT,0.00,WeatherDisplay:10.37,2013-06-13 08:01:00,
2013-06-13 00:06:00,52.9,40.6,29.68,SSE,158,4.6,4.6,63,0.00,CLR,SCT,0.00,WeatherDisplay:10.37,2013-06-13 08:06:00,
2013-06-13 00:11:00,52.7,40.5,29.68,SSE,158,2.3,0.0,63,0.00,CLR,SCT,0.00,WeatherDisplay:10.37,2013-06-13 08:11:00,
2013-06-13 00:16:00,52.7,40.9,29.68,SW,225,5.8,5.8,64,0.00,CLR,SCT,0.00,WeatherDisplay:10.37,2013-06-13 08:16:00,
2013-06-13 00:21:00,52.5,40.7,29.68,SSE,158,4.0,4.0,64,0.00,CLR,SCT,0.00,WeatherDisplay:10.37,2013-06-13 08:21:00,
2013-06-13 00:26:00,52.7,41.3,29.68,South,180,5.8,5.8,65,0.00,CLR,SCT,0.00,WeatherDisplay:10.37,2013-06-13 08:26:00,
2013-06-13 00:31:00,52.3,40.9,29.68,SSE,158,3.5,3.5,65,0.00,CLR,SCT,0.00,WeatherDisplay:10.37,2013-06-13 08:31:00,
2013-06-13 00:36:00,52.2,40.7,29.68,SW,225,5.8,5.8,65,0.00,CLR,SCT,0.00,WeatherDisplay:10.37,2013-06-13 08:36:00,
2013-06-13 00:42:00,52.2,41.1,29.68,South,180,5.8,5.8,66,0.00,CLR,SCT,0.00,WeatherDisplay:10.37,2013-06-13 08:42:00,
2013-06-13 00:47:00,52.2,41.1,29.68,SE,135,4.6,4.6,66,0.00,CLR,SCT,0.00,WeatherDisplay:10.37,2013-06-13 08:47:00,
2013-06-13 00:52:00,52.0,41.0,29.68,SSW,202,4.6,4.6,66,0.00,CLR,SCT,0.00,WeatherDisplay:10.37,2013-06-13 08:52:00,
2013-06-13 00:57:00,51.8,40.8,29.68,SE,135,3.6,3.6,66,0.00,CLR,SCT,0.00,WeatherDisplay:10.37,2013-06-13 08:57:00,
2013-06-13 01:02:00,51.8,41.2,29.68,SSE,158,3.5,3.5,67,0.00,CLR,SCT,0.00,WeatherDisplay:10.37,2013-06-13 09:02:00,
2013-06-13 01:07:00,51.8,41.2,29.68,SSE,158,2.6,2.6,67,0.00,CLR,SCT,0.00,WeatherDisplay:10.37,2013-06-13 09:07:00,
2013-06-13 01:12:00,52.2,41.1,29.68,SSE,158,3.5,3.5,66,0.00,CLR,SCT,0.00,WeatherDisplay:10.37,2013-06-13 09:12:00,
2013-06-13 01:17:00,52.2,40.7,29.68,SSW,202,4.6,4.6,65,0.00,CLR,SCT,0.00,WeatherDisplay:10.37,2013-06-13 09:17:00,
2013-06-13 01:22:00,52.0,40.6,29.68,SE,135,4.6,4.6,65,0.00,CLR,SCT,0.00,WeatherDisplay:10.37,2013-06-13 09:22:00,
2013-06-13 01:27:00,51.8,40.4,29.68,SSE,158,4.6,4.6,65,0.00,CLR,SCT,0.00,WeatherDisplay:10.37,2013-06-13 09:27:00,
2013-06-13 01:32:00,52.0,40.2,29.68,SE,135,4.6,4.6,64,0.00,CLR,SCT,0.00,WeatherDisplay:10.37,2013-06-13 09:32:00,
2013-06-13 01:37:00,52.2,40.3,29.68,SE,135,5.8,5.8,64,0.00,CLR,SCT,0.00,WeatherDisplay:10.37,2013-06-13 09:37:00,
2013-06-13 01:42:00,52.2,39.9,29.68,SSE,158,5.8,5.8,63,0.00,CLR,SCT,0.00,WeatherDisplay:10.37,2013-06-13 09:42:00,
2013-06-13 01:47:00,52.0,40.2,29.68,South,180,4.6,4.6,64,0.00,CLR,SCT,0.00,WeatherDisplay:10.37,2013-06-13 09:47:00,
2013-06-13 01:52:00,51.6,40.2,29.68,SE,135,4.6,4.6,65,0.00,CLR,SCT,0.00,WeatherDisplay:10.37,2013-06-13 09:52:00,
2013-06-13 01:57:00,51.3,40.3,29.68,SE,135,4.6,4.6,66,0.00,CLR,SCT,0.00,WeatherDisplay:10.37,2013-06-13 09:57:00,
2013-06-13 02:02:00,51.3,40.3,29.68,SE,135,4.6,4.6,66,0.00,CLR,SCT,0.00,WeatherDisplay:10.37,2013-06-13 10:02:00,
2013-06-13 02:07:00,50.9,40.3,29.68,SSE,158,3.6,3.6,67,0.00,CLR,SCT,0.00,WeatherDisplay:10.37,2013-06-13 10:07:00,
2013-06-13 02:12:00,50.9,40.3,29.68,SSE,158,4.6,4.6,67,0.00,CLR,SCT,0.00,WeatherDisplay:10.37,2013-06-13 10:12:00,
2013-06-13 02:17:00,50.9,39.9,29.68,SE,135,3.5,3.5,66,0.00,CLR,SCT,0.00,WeatherDisplay:10.37,2013-06-13 10:17:00,
2013-06-13 02:22:00,50.9,39.9,29.68,SSE,158,3.5,3.5,66,0.00,CLR,SCT,0.00,WeatherDisplay:10.37,2013-06-13 10:22:00,
2013-06-13 02:27:00,50.9,39.9,29.68,SE,135,4.6,4.6,66,0.00,CLR,SCT,0.00,WeatherDisplay:10.37,2013-06-13 10:27:00,
2013-06-13 02:32:00,51.1,40.1,29.68,SSE,158,4.6,4.6,66,0.00,CLR,SCT,0.00,WeatherDisplay:10.37,2013-06-13 10:32:00,
2013-06-13 02:37:00,51.1,40.1,29.68,SSE,158,4.6,4.6,66,0.00,CLR,SCT,0.00,WeatherDisplay:10.37,2013-06-13 10:37:00,
2013-06-13 02:42:00,50.9,39.9,29.68,SE,135,3.5,3.5,66,0.00,CLR,SCT,0.00,WeatherDisplay:10.37,2013-06-13 10:42:00,
2013-06-13 02:47:00,50.9,39.9,29.68,South,180,3.6,3.6,66,0.00,CLR,SCT,0.00,WeatherDisplay:10.37,2013-06-13 10:47:00,
2013-06-13 02:52:00,50.9,39.9,29.68,SSE,158,3.5,3.5,66,0.00,CLR,SCT,0.00,WeatherDisplay:10.37,2013-06-13 10:52:00,
2013-06-13 02:57:00,50.7,39.8,29.68,SSE,158,2.3,0.0,66,0.00,CLR,SCT,0.00,WeatherDisplay:10.37,2013-06-13 10:57:00,
2013-06-13 03:02:00,50.7,39.8,29.68,SSE,158,4.6,4.6,66,0.00,CLR,SCT,0.00,WeatherDisplay:10.37,2013-06-13 11:02:00,
2013-06-13 03:07:00,50.9,39.9,29.65,SSE,158,3.5,3.5,66,0.00,CLR,SCT,0.00,WeatherDisplay:10.37,2013-06-13 11:07:00,
2013-06-13 03:12:00,51.1,40.1,29.65,SE,135,4.6,4.6,66,0.00,CLR,SCT,0.00,WeatherDisplay:10.37,2013-06-13 11:12:00,
2013-06-13 03:17:00,51.1,40.1,29.65,SE,135,3.6,0.0,66,0.00,CLR,SCT,0.00,WeatherDisplay:10.37,2013-06-13 11:17:00,